sensor_id;sensor_type;location;lat;lon;timestamp;P1;durP1;ratioP1;P2;durP2;ratioP2
72439;SDS011;60446;50.752;4.352;2024-01-25T00:02:04;30.40;;;4.80;;
72439;SDS011;60446;50.752;4.352;2024-01-25T00:04:31;16.75;;;3.55;;
72439;SDS011;60446;50.752;4.352;2024-01-25T00:06:59;23.33;;;4.45;;
72439;SDS011;60446;50.752;4.352;2024-01-25T00:09:28;25.75;;;4.28;;
72439;SDS011;60446;50.752;4.352;2024-01-25T00:11:55;15.00;;;3.47;;
72439;SDS011;60446;50.752;4.352;2024-01-25T00:14:22;25.23;;;4.30;;
72439;SDS011;60446;50.752;4.352;2024-01-25T00:16:49;26.67;;;3.92;;
72439;SDS011;60446;50.752;4.352;2024-01-25T00:19:18;18.63;;;3.05;;
72439;SDS011;60446;50.752;4.352;2024-01-25T00:21:45;17.73;;;3.85;;
72439;SDS011;60446;50.752;4.352;2024-01-25T00:24:12;21.97;;;3.73;;
72439;SDS011;60446;50.752;4.352;2024-01-25T00:26:40;20.23;;;3.50;;
72439;SDS011;60446;50.752;4.352;2024-01-25T00:29:07;20.38;;;4.28;;
72439;SDS011;60446;50.752;4.352;2024-01-25T00:31:34;26.45;;;4.15;;
72439;SDS011;60446;50.752;4.352;2024-01-25T00:34:01;20.65;;;3.47;;
72439;SDS011;60446;50.752;4.352;2024-01-25T00:36:30;21.53;;;3.57;;
72439;SDS011;60446;50.752;4.352;2024-01-25T00:38:57;20.95;;;3.28;;
72439;SDS011;60446;50.752;4.352;2024-01-25T00:41:25;22.80;;;3.90;;
72439;SDS011;60446;50.752;4.352;2024-01-25T00:43:53;20.70;;;3.72;;
72439;SDS011;60446;50.752;4.352;2024-01-25T00:46:21;17.92;;;3.30;;
72439;SDS011;60446;50.752;4.352;2024-01-25T00:48:49;17.20;;;3.77;;
72439;SDS011;60446;50.752;4.352;2024-01-25T00:51:20;13.05;;;3.67;;
72439;SDS011;60446;50.752;4.352;2024-01-25T00:53:51;18.48;;;3.00;;
72439;SDS011;60446;50.752;4.352;2024-01-25T00:56:19;35.22;;;4.53;;
72439;SDS011;60446;50.752;4.352;2024-01-25T00:58:46;19.45;;;3.97;;
72439;SDS011;60446;50.752;4.352;2024-01-25T01:01:14;17.37;;;3.90;;
72439;SDS011;60446;50.752;4.352;2024-01-25T01:03:42;22.95;;;3.30;;
72439;SDS011;60446;50.752;4.352;2024-01-25T01:06:10;26.30;;;4.53;;
72439;SDS011;60446;50.752;4.352;2024-01-25T01:08:37;24.13;;;4.22;;
72439;SDS011;60446;50.752;4.352;2024-01-25T01:11:05;17.80;;;3.45;;
72439;SDS011;60446;50.752;4.352;2024-01-25T01:13:32;18.20;;;3.47;;
72439;SDS011;60446;50.752;4.352;2024-01-25T01:15:59;24.60;;;4.13;;
72439;SDS011;60446;50.752;4.352;2024-01-25T01:18:28;18.35;;;3.72;;
72439;SDS011;60446;50.752;4.352;2024-01-25T01:20:55;20.33;;;4.07;;
72439;SDS011;60446;50.752;4.352;2024-01-25T01:23:22;26.65;;;3.78;;
72439;SDS011;60446;50.752;4.352;2024-01-25T01:25:49;18.23;;;3.63;;
72439;SDS011;60446;50.752;4.352;2024-01-25T01:28:17;24.52;;;4.60;;
72439;SDS011;60446;50.752;4.352;2024-01-25T01:30:44;28.70;;;3.83;;
72439;SDS011;60446;50.752;4.352;2024-01-25T01:33:12;26.40;;;3.47;;
72439;SDS011;60446;50.752;4.352;2024-01-25T01:35:40;17.05;;;3.50;;
72439;SDS011;60446;50.752;4.352;2024-01-25T01:38:07;20.83;;;4.50;;
72439;SDS011;60446;50.752;4.352;2024-01-25T01:40:34;14.65;;;2.92;;
72439;SDS011;60446;50.752;4.352;2024-01-25T01:43:02;15.38;;;3.65;;
72439;SDS011;60446;50.752;4.352;2024-01-25T01:45:30;20.25;;;3.17;;
72439;SDS011;60446;50.752;4.352;2024-01-25T01:47:58;20.30;;;3.92;;
72439;SDS011;60446;50.752;4.352;2024-01-25T01:50:26;26.80;;;3.53;;
72439;SDS011;60446;50.752;4.352;2024-01-25T01:52:54;27.60;;;4.13;;
72439;SDS011;60446;50.752;4.352;2024-01-25T01:55:21;26.52;;;3.95;;
72439;SDS011;60446;50.752;4.352;2024-01-25T01:57:50;16.17;;;3.45;;
72439;SDS011;60446;50.752;4.352;2024-01-25T02:00:17;24.98;;;3.58;;
72439;SDS011;60446;50.752;4.352;2024-01-25T02:02:46;20.00;;;3.87;;
72439;SDS011;60446;50.752;4.352;2024-01-25T02:05:14;22.15;;;3.80;;
72439;SDS011;60446;50.752;4.352;2024-01-25T02:07:41;22.70;;;3.70;;
72439;SDS011;60446;50.752;4.352;2024-01-25T02:10:11;22.58;;;3.75;;
72439;SDS011;60446;50.752;4.352;2024-01-25T02:12:38;19.08;;;3.58;;
72439;SDS011;60446;50.752;4.352;2024-01-25T02:15:06;15.97;;;3.37;;
72439;SDS011;60446;50.752;4.352;2024-01-25T02:17:34;22.25;;;3.80;;
72439;SDS011;60446;50.752;4.352;2024-01-25T02:20:01;14.60;;;3.70;;
72439;SDS011;60446;50.752;4.352;2024-01-25T02:22:29;17.52;;;3.70;;
72439;SDS011;60446;50.752;4.352;2024-01-25T02:24:57;14.18;;;3.22;;
72439;SDS011;60446;50.752;4.352;2024-01-25T02:27:25;16.73;;;3.90;;
72439;SDS011;60446;50.752;4.352;2024-01-25T02:29:52;15.02;;;2.92;;
72439;SDS011;60446;50.752;4.352;2024-01-25T02:32:19;16.70;;;3.60;;
72439;SDS011;60446;50.752;4.352;2024-01-25T02:34:46;10.43;;;2.88;;
72439;SDS011;60446;50.752;4.352;2024-01-25T02:37:13;21.25;;;3.35;;
72439;SDS011;60446;50.752;4.352;2024-01-25T02:39:43;14.47;;;2.97;;
72439;SDS011;60446;50.752;4.352;2024-01-25T02:42:11;14.27;;;3.15;;
72439;SDS011;60446;50.752;4.352;2024-01-25T02:44:41;14.63;;;3.40;;
72439;SDS011;60446;50.752;4.352;2024-01-25T02:47:08;17.95;;;3.30;;
72439;SDS011;60446;50.752;4.352;2024-01-25T02:49:35;26.20;;;3.85;;
72439;SDS011;60446;50.752;4.352;2024-01-25T02:52:03;13.27;;;3.00;;
72439;SDS011;60446;50.752;4.352;2024-01-25T02:54:34;15.95;;;3.92;;
72439;SDS011;60446;50.752;4.352;2024-01-25T02:57:03;14.05;;;3.08;;
72439;SDS011;60446;50.752;4.352;2024-01-25T02:59:31;21.27;;;3.60;;
72439;SDS011;60446;50.752;4.352;2024-01-25T03:01:58;20.40;;;3.95;;
72439;SDS011;60446;50.752;4.352;2024-01-25T03:04:26;18.43;;;3.80;;
72439;SDS011;60446;50.752;4.352;2024-01-25T03:06:53;15.27;;;2.85;;
72439;SDS011;60446;50.752;4.352;2024-01-25T03:09:20;16.30;;;3.17;;
72439;SDS011;60446;50.752;4.352;2024-01-25T03:11:50;17.98;;;3.03;;
72439;SDS011;60446;50.752;4.352;2024-01-25T03:14:17;17.33;;;3.60;;
72439;SDS011;60446;50.752;4.352;2024-01-25T03:16:44;28.03;;;4.27;;
72439;SDS011;60446;50.752;4.352;2024-01-25T03:19:11;14.57;;;3.17;;
72439;SDS011;60446;50.752;4.352;2024-01-25T03:21:39;22.95;;;3.83;;
72439;SDS011;60446;50.752;4.352;2024-01-25T03:24:06;15.27;;;2.85;;
72439;SDS011;60446;50.752;4.352;2024-01-25T03:26:33;15.88;;;3.30;;
72439;SDS011;60446;50.752;4.352;2024-01-25T03:29:00;22.60;;;3.20;;
72439;SDS011;60446;50.752;4.352;2024-01-25T03:31:28;18.42;;;3.13;;
72439;SDS011;60446;50.752;4.352;2024-01-25T03:33:55;22.27;;;3.33;;
72439;SDS011;60446;50.752;4.352;2024-01-25T03:36:22;18.77;;;3.03;;
72439;SDS011;60446;50.752;4.352;2024-01-25T03:38:49;20.52;;;3.72;;
72439;SDS011;60446;50.752;4.352;2024-01-25T03:41:17;19.67;;;2.97;;
72439;SDS011;60446;50.752;4.352;2024-01-25T03:43:44;19.40;;;3.53;;
72439;SDS011;60446;50.752;4.352;2024-01-25T03:46:11;21.15;;;3.53;;
72439;SDS011;60446;50.752;4.352;2024-01-25T03:48:39;23.17;;;3.40;;
72439;SDS011;60446;50.752;4.352;2024-01-25T03:51:06;14.80;;;2.70;;
72439;SDS011;60446;50.752;4.352;2024-01-25T03:53:34;25.40;;;3.47;;
72439;SDS011;60446;50.752;4.352;2024-01-25T03:56:02;15.43;;;3.10;;
72439;SDS011;60446;50.752;4.352;2024-01-25T03:58:29;14.07;;;3.05;;
72439;SDS011;60446;50.752;4.352;2024-01-25T04:00:56;10.98;;;2.95;;
72439;SDS011;60446;50.752;4.352;2024-01-25T04:03:24;16.45;;;3.35;;
72439;SDS011;60446;50.752;4.352;2024-01-25T04:05:52;12.97;;;2.40;;
72439;SDS011;60446;50.752;4.352;2024-01-25T04:08:19;17.88;;;3.88;;
72439;SDS011;60446;50.752;4.352;2024-01-25T04:10:46;16.05;;;3.67;;
72439;SDS011;60446;50.752;4.352;2024-01-25T04:13:13;21.20;;;3.72;;
72439;SDS011;60446;50.752;4.352;2024-01-25T04:15:40;14.23;;;3.30;;
72439;SDS011;60446;50.752;4.352;2024-01-25T04:18:08;21.60;;;3.10;;
72439;SDS011;60446;50.752;4.352;2024-01-25T04:20:35;15.95;;;2.67;;
72439;SDS011;60446;50.752;4.352;2024-01-25T04:23:03;13.98;;;3.35;;
72439;SDS011;60446;50.752;4.352;2024-01-25T04:25:30;17.25;;;2.85;;
72439;SDS011;60446;50.752;4.352;2024-01-25T04:28:00;15.85;;;3.22;;
72439;SDS011;60446;50.752;4.352;2024-01-25T04:30:28;14.87;;;3.10;;
72439;SDS011;60446;50.752;4.352;2024-01-25T04:32:57;17.25;;;2.80;;
72439;SDS011;60446;50.752;4.352;2024-01-25T04:35:26;15.10;;;3.10;;
72439;SDS011;60446;50.752;4.352;2024-01-25T04:37:53;16.00;;;3.72;;
72439;SDS011;60446;50.752;4.352;2024-01-25T04:40:20;10.13;;;2.50;;
72439;SDS011;60446;50.752;4.352;2024-01-25T04:42:48;9.47;;;2.53;;
72439;SDS011;60446;50.752;4.352;2024-01-25T04:45:15;18.02;;;3.30;;
72439;SDS011;60446;50.752;4.352;2024-01-25T04:47:42;10.65;;;2.70;;
72439;SDS011;60446;50.752;4.352;2024-01-25T04:50:10;16.92;;;3.20;;
72439;SDS011;60446;50.752;4.352;2024-01-25T04:52:38;16.10;;;2.80;;
72439;SDS011;60446;50.752;4.352;2024-01-25T04:55:05;8.97;;;2.83;;
72439;SDS011;60446;50.752;4.352;2024-01-25T04:57:33;15.48;;;3.13;;
72439;SDS011;60446;50.752;4.352;2024-01-25T05:00:01;19.80;;;3.70;;
72439;SDS011;60446;50.752;4.352;2024-01-25T05:02:28;15.63;;;3.10;;
72439;SDS011;60446;50.752;4.352;2024-01-25T05:04:56;13.38;;;2.88;;
72439;SDS011;60446;50.752;4.352;2024-01-25T05:07:23;16.33;;;2.70;;
72439;SDS011;60446;50.752;4.352;2024-01-25T05:09:56;10.55;;;2.42;;
72439;SDS011;60446;50.752;4.352;2024-01-25T05:12:23;18.88;;;2.95;;
72439;SDS011;60446;50.752;4.352;2024-01-25T05:14:50;19.55;;;3.42;;
72439;SDS011;60446;50.752;4.352;2024-01-25T05:17:18;16.45;;;3.13;;
72439;SDS011;60446;50.752;4.352;2024-01-25T05:19:45;13.43;;;3.43;;
72439;SDS011;60446;50.752;4.352;2024-01-25T05:22:12;14.07;;;2.90;;
72439;SDS011;60446;50.752;4.352;2024-01-25T05:24:40;17.85;;;2.78;;
72439;SDS011;60446;50.752;4.352;2024-01-25T05:27:07;11.80;;;2.55;;
72439;SDS011;60446;50.752;4.352;2024-01-25T05:29:34;12.23;;;3.00;;
72439;SDS011;60446;50.752;4.352;2024-01-25T05:32:01;14.57;;;2.70;;
72439;SDS011;60446;50.752;4.352;2024-01-25T05:34:28;13.57;;;2.80;;
72439;SDS011;60446;50.752;4.352;2024-01-25T05:36:56;8.57;;;3.28;;
72439;SDS011;60446;50.752;4.352;2024-01-25T05:39:24;14.27;;;2.53;;
72439;SDS011;60446;50.752;4.352;2024-01-25T05:41:51;16.55;;;3.30;;
72439;SDS011;60446;50.752;4.352;2024-01-25T05:44:18;26.00;;;3.07;;
72439;SDS011;60446;50.752;4.352;2024-01-25T05:46:45;14.45;;;3.10;;
72439;SDS011;60446;50.752;4.352;2024-01-25T05:49:12;16.52;;;3.67;;
72439;SDS011;60446;50.752;4.352;2024-01-25T05:51:40;14.90;;;2.88;;
72439;SDS011;60446;50.752;4.352;2024-01-25T05:54:07;11.77;;;2.30;;
72439;SDS011;60446;50.752;4.352;2024-01-25T05:56:34;15.30;;;2.93;;
72439;SDS011;60446;50.752;4.352;2024-01-25T05:59:02;15.40;;;3.40;;
72439;SDS011;60446;50.752;4.352;2024-01-25T06:01:29;19.63;;;3.72;;
72439;SDS011;60446;50.752;4.352;2024-01-25T06:03:56;19.83;;;3.63;;
72439;SDS011;60446;50.752;4.352;2024-01-25T06:06:24;12.55;;;3.25;;
72439;SDS011;60446;50.752;4.352;2024-01-25T06:08:51;11.70;;;3.20;;
72439;SDS011;60446;50.752;4.352;2024-01-25T06:11:36;14.35;;;3.22;;
72439;SDS011;60446;50.752;4.352;2024-01-25T06:14:07;11.65;;;3.50;;
72439;SDS011;60446;50.752;4.352;2024-01-25T06:16:35;14.02;;;3.17;;
72439;SDS011;60446;50.752;4.352;2024-01-25T06:19:03;11.77;;;3.10;;
72439;SDS011;60446;50.752;4.352;2024-01-25T06:21:30;9.43;;;3.13;;
72439;SDS011;60446;50.752;4.352;2024-01-25T06:24:04;17.88;;;3.53;;
72439;SDS011;60446;50.752;4.352;2024-01-25T06:26:32;14.85;;;4.28;;
72439;SDS011;60446;50.752;4.352;2024-01-25T06:28:59;14.20;;;4.13;;
72439;SDS011;60446;50.752;4.352;2024-01-25T06:31:26;10.57;;;3.28;;
72439;SDS011;60446;50.752;4.352;2024-01-25T06:33:54;17.53;;;4.13;;
72439;SDS011;60446;50.752;4.352;2024-01-25T06:36:23;13.95;;;3.25;;
72439;SDS011;60446;50.752;4.352;2024-01-25T06:38:51;17.30;;;3.97;;
72439;SDS011;60446;50.752;4.352;2024-01-25T06:41:18;20.40;;;4.05;;
72439;SDS011;60446;50.752;4.352;2024-01-25T06:43:45;16.23;;;4.18;;
72439;SDS011;60446;50.752;4.352;2024-01-25T06:46:12;19.37;;;4.60;;
72439;SDS011;60446;50.752;4.352;2024-01-25T06:48:39;21.33;;;4.80;;
72439;SDS011;60446;50.752;4.352;2024-01-25T06:51:07;17.20;;;5.05;;
72439;SDS011;60446;50.752;4.352;2024-01-25T06:53:34;21.70;;;4.97;;
72439;SDS011;60446;50.752;4.352;2024-01-25T06:56:01;20.77;;;4.60;;
72439;SDS011;60446;50.752;4.352;2024-01-25T06:58:28;44.73;;;4.83;;
72439;SDS011;60446;50.752;4.352;2024-01-25T07:00:57;25.20;;;4.60;;
72439;SDS011;60446;50.752;4.352;2024-01-25T07:03:27;25.98;;;5.28;;
72439;SDS011;60446;50.752;4.352;2024-01-25T07:05:55;21.45;;;5.78;;
72439;SDS011;60446;50.752;4.352;2024-01-25T07:08:22;21.83;;;5.03;;
72439;SDS011;60446;50.752;4.352;2024-01-25T07:10:50;21.80;;;5.33;;
72439;SDS011;60446;50.752;4.352;2024-01-25T07:13:18;34.28;;;5.28;;
72439;SDS011;60446;50.752;4.352;2024-01-25T07:15:47;24.25;;;5.32;;
72439;SDS011;60446;50.752;4.352;2024-01-25T07:18:15;21.38;;;6.25;;
72439;SDS011;60446;50.752;4.352;2024-01-25T07:20:46;27.95;;;5.35;;
72439;SDS011;60446;50.752;4.352;2024-01-25T07:23:13;35.23;;;5.40;;
72439;SDS011;60446;50.752;4.352;2024-01-25T07:25:40;29.20;;;7.30;;
72439;SDS011;60446;50.752;4.352;2024-01-25T07:28:07;22.33;;;7.47;;
72439;SDS011;60446;50.752;4.352;2024-01-25T07:30:35;21.70;;;6.72;;
72439;SDS011;60446;50.752;4.352;2024-01-25T07:33:02;21.33;;;6.43;;
72439;SDS011;60446;50.752;4.352;2024-01-25T07:35:30;26.50;;;6.80;;
72439;SDS011;60446;50.752;4.352;2024-01-25T07:37:57;24.30;;;6.78;;
72439;SDS011;60446;50.752;4.352;2024-01-25T07:40:24;23.48;;;7.15;;
72439;SDS011;60446;50.752;4.352;2024-01-25T07:42:51;37.53;;;6.53;;
72439;SDS011;60446;50.752;4.352;2024-01-25T07:45:18;32.78;;;7.53;;
72439;SDS011;60446;50.752;4.352;2024-01-25T07:47:47;22.87;;;7.23;;
72439;SDS011;60446;50.752;4.352;2024-01-25T07:50:20;33.13;;;7.07;;
72439;SDS011;60446;50.752;4.352;2024-01-25T07:52:47;42.40;;;8.77;;
72439;SDS011;60446;50.752;4.352;2024-01-25T07:55:16;34.17;;;7.60;;
72439;SDS011;60446;50.752;4.352;2024-01-25T07:57:44;26.55;;;7.70;;
72439;SDS011;60446;50.752;4.352;2024-01-25T08:00:12;32.00;;;6.80;;
72439;SDS011;60446;50.752;4.352;2024-01-25T08:02:39;35.25;;;7.15;;
72439;SDS011;60446;50.752;4.352;2024-01-25T08:05:08;31.77;;;6.63;;
72439;SDS011;60446;50.752;4.352;2024-01-25T08:07:36;28.98;;;6.85;;
72439;SDS011;60446;50.752;4.352;2024-01-25T08:10:04;16.80;;;4.95;;
72439;SDS011;60446;50.752;4.352;2024-01-25T08:12:32;15.47;;;4.93;;
72439;SDS011;60446;50.752;4.352;2024-01-25T08:14:59;36.90;;;6.05;;
72439;SDS011;60446;50.752;4.352;2024-01-25T08:17:30;24.30;;;6.05;;
72439;SDS011;60446;50.752;4.352;2024-01-25T08:19:57;25.55;;;6.53;;
72439;SDS011;60446;50.752;4.352;2024-01-25T08:22:25;27.27;;;6.28;;
72439;SDS011;60446;50.752;4.352;2024-01-25T08:24:52;32.33;;;6.40;;
72439;SDS011;60446;50.752;4.352;2024-01-25T08:27:19;37.85;;;5.55;;
72439;SDS011;60446;50.752;4.352;2024-01-25T08:29:46;23.05;;;6.05;;
72439;SDS011;60446;50.752;4.352;2024-01-25T08:32:13;28.02;;;5.57;;
72439;SDS011;60446;50.752;4.352;2024-01-25T08:34:42;25.02;;;7.22;;
72439;SDS011;60446;50.752;4.352;2024-01-25T08:37:10;20.37;;;5.57;;
72439;SDS011;60446;50.752;4.352;2024-01-25T08:39:37;25.65;;;6.38;;
72439;SDS011;60446;50.752;4.352;2024-01-25T08:42:04;39.67;;;7.60;;
72439;SDS011;60446;50.752;4.352;2024-01-25T08:44:32;29.20;;;6.82;;
72439;SDS011;60446;50.752;4.352;2024-01-25T08:47:01;30.73;;;7.32;;
72439;SDS011;60446;50.752;4.352;2024-01-25T08:49:29;38.57;;;8.17;;
72439;SDS011;60446;50.752;4.352;2024-01-25T08:51:56;56.42;;;9.02;;
72439;SDS011;60446;50.752;4.352;2024-01-25T08:54:23;47.22;;;9.02;;
72439;SDS011;60446;50.752;4.352;2024-01-25T08:56:50;34.70;;;8.00;;
72439;SDS011;60446;50.752;4.352;2024-01-25T08:59:17;33.20;;;8.63;;
72439;SDS011;60446;50.752;4.352;2024-01-25T09:01:44;30.63;;;7.90;;
72439;SDS011;60446;50.752;4.352;2024-01-25T09:04:13;45.20;;;7.93;;
72439;SDS011;60446;50.752;4.352;2024-01-25T09:06:40;27.85;;;7.45;;
72439;SDS011;60446;50.752;4.352;2024-01-25T09:09:08;35.40;;;8.10;;
72439;SDS011;60446;50.752;4.352;2024-01-25T09:11:37;25.10;;;7.40;;
72439;SDS011;60446;50.752;4.352;2024-01-25T09:14:05;30.33;;;7.33;;
72439;SDS011;60446;50.752;4.352;2024-01-25T09:16:33;23.20;;;6.25;;
72439;SDS011;60446;50.752;4.352;2024-01-25T09:19:03;22.45;;;6.22;;
72439;SDS011;60446;50.752;4.352;2024-01-25T09:21:31;33.35;;;8.18;;
72439;SDS011;60446;50.752;4.352;2024-01-25T09:23:58;27.52;;;7.18;;
72439;SDS011;60446;50.752;4.352;2024-01-25T09:26:26;30.53;;;7.23;;
72439;SDS011;60446;50.752;4.352;2024-01-25T09:28:53;28.02;;;6.47;;
72439;SDS011;60446;50.752;4.352;2024-01-25T09:31:20;25.80;;;6.72;;
72439;SDS011;60446;50.752;4.352;2024-01-25T09:33:50;24.50;;;6.88;;
72439;SDS011;60446;50.752;4.352;2024-01-25T09:36:18;23.73;;;7.40;;
72439;SDS011;60446;50.752;4.352;2024-01-25T09:38:45;32.73;;;7.50;;
72439;SDS011;60446;50.752;4.352;2024-01-25T09:41:13;27.17;;;6.97;;
72439;SDS011;60446;50.752;4.352;2024-01-25T09:43:41;29.55;;;6.40;;
72439;SDS011;60446;50.752;4.352;2024-01-25T09:46:10;24.65;;;6.65;;
72439;SDS011;60446;50.752;4.352;2024-01-25T09:48:42;24.35;;;6.93;;
72439;SDS011;60446;50.752;4.352;2024-01-25T09:51:13;31.23;;;7.50;;
72439;SDS011;60446;50.752;4.352;2024-01-25T09:53:40;18.52;;;6.10;;
72439;SDS011;60446;50.752;4.352;2024-01-25T09:56:12;32.65;;;7.45;;
72439;SDS011;60446;50.752;4.352;2024-01-25T09:58:40;25.38;;;7.40;;
72439;SDS011;60446;50.752;4.352;2024-01-25T10:01:09;31.30;;;7.35;;
72439;SDS011;60446;50.752;4.352;2024-01-25T10:03:41;26.43;;;6.47;;
72439;SDS011;60446;50.752;4.352;2024-01-25T10:06:10;27.80;;;7.10;;
72439;SDS011;60446;50.752;4.352;2024-01-25T10:08:39;27.65;;;6.53;;
72439;SDS011;60446;50.752;4.352;2024-01-25T10:11:06;20.52;;;6.03;;
72439;SDS011;60446;50.752;4.352;2024-01-25T10:13:44;27.52;;;6.60;;
72439;SDS011;60446;50.752;4.352;2024-01-25T10:16:18;22.63;;;6.93;;
72439;SDS011;60446;50.752;4.352;2024-01-25T10:18:46;22.48;;;7.30;;
72439;SDS011;60446;50.752;4.352;2024-01-25T10:21:15;24.83;;;6.45;;
72439;SDS011;60446;50.752;4.352;2024-01-25T10:23:46;23.08;;;5.65;;
72439;SDS011;60446;50.752;4.352;2024-01-25T10:26:15;24.55;;;6.18;;
72439;SDS011;60446;50.752;4.352;2024-01-25T10:28:50;22.50;;;5.63;;
72439;SDS011;60446;50.752;4.352;2024-01-25T10:31:28;26.40;;;7.53;;
72439;SDS011;60446;50.752;4.352;2024-01-25T10:33:57;27.10;;;7.80;;
72439;SDS011;60446;50.752;4.352;2024-01-25T10:36:24;22.50;;;6.93;;
72439;SDS011;60446;50.752;4.352;2024-01-25T10:38:54;24.67;;;6.88;;
72439;SDS011;60446;50.752;4.352;2024-01-25T10:41:23;19.07;;;6.33;;
72439;SDS011;60446;50.752;4.352;2024-01-25T10:43:55;21.15;;;6.60;;
72439;SDS011;60446;50.752;4.352;2024-01-25T10:46:22;24.95;;;7.53;;
72439;SDS011;60446;50.752;4.352;2024-01-25T10:48:50;18.02;;;5.95;;
72439;SDS011;60446;50.752;4.352;2024-01-25T10:51:18;24.92;;;6.72;;
72439;SDS011;60446;50.752;4.352;2024-01-25T10:53:46;17.87;;;6.37;;
72439;SDS011;60446;50.752;4.352;2024-01-25T10:56:13;22.00;;;6.80;;
72439;SDS011;60446;50.752;4.352;2024-01-25T10:58:41;19.88;;;6.47;;
72439;SDS011;60446;50.752;4.352;2024-01-25T11:01:09;20.63;;;6.50;;
72439;SDS011;60446;50.752;4.352;2024-01-25T11:03:42;21.65;;;6.45;;
72439;SDS011;60446;50.752;4.352;2024-01-25T11:06:13;20.57;;;6.43;;
72439;SDS011;60446;50.752;4.352;2024-01-25T11:08:41;21.23;;;6.22;;
72439;SDS011;60446;50.752;4.352;2024-01-25T11:11:15;22.83;;;6.32;;
72439;SDS011;60446;50.752;4.352;2024-01-25T11:13:44;24.95;;;6.40;;
72439;SDS011;60446;50.752;4.352;2024-01-25T11:16:12;17.35;;;6.03;;
72439;SDS011;60446;50.752;4.352;2024-01-25T11:18:50;18.13;;;5.63;;
72439;SDS011;60446;50.752;4.352;2024-01-25T11:24:15;17.83;;;5.78;;
72439;SDS011;60446;50.752;4.352;2024-01-25T11:26:48;19.20;;;5.78;;
72439;SDS011;60446;50.752;4.352;2024-01-25T11:29:17;19.55;;;5.93;;
72439;SDS011;60446;50.752;4.352;2024-01-25T11:31:47;23.13;;;4.63;;
72439;SDS011;60446;50.752;4.352;2024-01-25T11:34:16;19.67;;;5.40;;
72439;SDS011;60446;50.752;4.352;2024-01-25T11:36:47;25.52;;;5.82;;
72439;SDS011;60446;50.752;4.352;2024-01-25T11:39:15;19.52;;;5.78;;
72439;SDS011;60446;50.752;4.352;2024-01-25T11:41:43;21.45;;;6.32;;
72439;SDS011;60446;50.752;4.352;2024-01-25T11:44:12;20.17;;;6.47;;
72439;SDS011;60446;50.752;4.352;2024-01-25T11:46:40;16.35;;;5.70;;
72439;SDS011;60446;50.752;4.352;2024-01-25T11:49:08;19.75;;;5.80;;
72439;SDS011;60446;50.752;4.352;2024-01-25T11:51:35;19.02;;;5.60;;
72439;SDS011;60446;50.752;4.352;2024-01-25T11:54:02;21.17;;;5.97;;
72439;SDS011;60446;50.752;4.352;2024-01-25T11:56:35;21.47;;;6.30;;
72439;SDS011;60446;50.752;4.352;2024-01-25T11:59:08;23.88;;;5.60;;
72439;SDS011;60446;50.752;4.352;2024-01-25T12:01:37;21.13;;;5.97;;
72439;SDS011;60446;50.752;4.352;2024-01-25T12:04:04;21.23;;;6.13;;
72439;SDS011;60446;50.752;4.352;2024-01-25T12:06:34;21.92;;;6.13;;
72439;SDS011;60446;50.752;4.352;2024-01-25T12:09:10;18.37;;;5.80;;
72439;SDS011;60446;50.752;4.352;2024-01-25T12:11:40;17.55;;;5.93;;
72439;SDS011;60446;50.752;4.352;2024-01-25T12:14:09;27.13;;;7.00;;
72439;SDS011;60446;50.752;4.352;2024-01-25T12:16:37;18.45;;;5.32;;
72439;SDS011;60446;50.752;4.352;2024-01-25T12:19:05;18.75;;;5.70;;
72439;SDS011;60446;50.752;4.352;2024-01-25T12:21:33;16.73;;;5.10;;
72439;SDS011;60446;50.752;4.352;2024-01-25T12:24:02;19.58;;;5.95;;
72439;SDS011;60446;50.752;4.352;2024-01-25T12:26:33;19.38;;;5.57;;
72439;SDS011;60446;50.752;4.352;2024-01-25T12:29:04;14.57;;;4.65;;
72439;SDS011;60446;50.752;4.352;2024-01-25T12:31:31;15.35;;;4.15;;
72439;SDS011;60446;50.752;4.352;2024-01-25T12:34:02;14.63;;;5.20;;
72439;SDS011;60446;50.752;4.352;2024-01-25T12:36:29;12.13;;;4.55;;
72439;SDS011;60446;50.752;4.352;2024-01-25T12:38:57;16.38;;;4.78;;
72439;SDS011;60446;50.752;4.352;2024-01-25T12:41:27;13.77;;;4.57;;
72439;SDS011;60446;50.752;4.352;2024-01-25T12:43:55;12.68;;;4.28;;
72439;SDS011;60446;50.752;4.352;2024-01-25T12:46:22;11.77;;;4.80;;
72439;SDS011;60446;50.752;4.352;2024-01-25T12:48:54;10.60;;;4.72;;
72439;SDS011;60446;50.752;4.352;2024-01-25T12:51:24;17.40;;;5.43;;
72439;SDS011;60446;50.752;4.352;2024-01-25T12:53:52;20.48;;;4.50;;
72439;SDS011;60446;50.752;4.352;2024-01-25T12:56:20;13.75;;;3.83;;
72439;SDS011;60446;50.752;4.352;2024-01-25T12:58:47;12.17;;;4.80;;
72439;SDS011;60446;50.752;4.352;2024-01-25T13:01:15;15.82;;;4.00;;
72439;SDS011;60446;50.752;4.352;2024-01-25T13:03:43;9.55;;;3.83;;
72439;SDS011;60446;50.752;4.352;2024-01-25T13:06:14;9.20;;;3.67;;
72439;SDS011;60446;50.752;4.352;2024-01-25T13:08:43;9.25;;;3.58;;
72439;SDS011;60446;50.752;4.352;2024-01-25T13:11:11;10.17;;;3.77;;
72439;SDS011;60446;50.752;4.352;2024-01-25T13:13:39;10.80;;;3.78;;
72439;SDS011;60446;50.752;4.352;2024-01-25T13:16:06;10.88;;;4.53;;
72439;SDS011;60446;50.752;4.352;2024-01-25T13:18:33;9.68;;;4.13;;
72439;SDS011;60446;50.752;4.352;2024-01-25T13:21:01;12.23;;;4.75;;
72439;SDS011;60446;50.752;4.352;2024-01-25T13:23:28;10.67;;;4.07;;
72439;SDS011;60446;50.752;4.352;2024-01-25T13:25:55;12.32;;;4.55;;
72439;SDS011;60446;50.752;4.352;2024-01-25T13:28:22;11.32;;;4.43;;
72439;SDS011;60446;50.752;4.352;2024-01-25T13:30:50;10.85;;;4.35;;
72439;SDS011;60446;50.752;4.352;2024-01-25T13:33:22;12.30;;;4.90;;
72439;SDS011;60446;50.752;4.352;2024-01-25T13:35:50;10.17;;;4.63;;
72439;SDS011;60446;50.752;4.352;2024-01-25T13:38:17;11.25;;;4.68;;
72439;SDS011;60446;50.752;4.352;2024-01-25T13:40:44;12.32;;;4.93;;
72439;SDS011;60446;50.752;4.352;2024-01-25T13:43:11;10.05;;;4.60;;
72439;SDS011;60446;50.752;4.352;2024-01-25T13:45:38;10.90;;;4.18;;
72439;SDS011;60446;50.752;4.352;2024-01-25T13:48:06;13.23;;;4.93;;
72439;SDS011;60446;50.752;4.352;2024-01-25T13:50:33;14.23;;;4.80;;
72439;SDS011;60446;50.752;4.352;2024-01-25T13:53:01;11.50;;;4.63;;
72439;SDS011;60446;50.752;4.352;2024-01-25T13:55:28;9.95;;;4.13;;
72439;SDS011;60446;50.752;4.352;2024-01-25T13:57:55;11.57;;;5.70;;
72439;SDS011;60446;50.752;4.352;2024-01-25T14:00:23;10.63;;;4.50;;
72439;SDS011;60446;50.752;4.352;2024-01-25T14:02:50;12.05;;;5.05;;
72439;SDS011;60446;50.752;4.352;2024-01-25T14:05:17;10.25;;;5.00;;
72439;SDS011;60446;50.752;4.352;2024-01-25T14:07:45;12.07;;;5.20;;
72439;SDS011;60446;50.752;4.352;2024-01-25T14:10:13;12.88;;;5.80;;
72439;SDS011;60446;50.752;4.352;2024-01-25T14:12:42;14.70;;;5.30;;
72439;SDS011;60446;50.752;4.352;2024-01-25T14:15:10;14.90;;;5.43;;
72439;SDS011;60446;50.752;4.352;2024-01-25T14:17:38;11.30;;;5.85;;
72439;SDS011;60446;50.752;4.352;2024-01-25T14:20:06;16.92;;;6.95;;
72439;SDS011;60446;50.752;4.352;2024-01-25T14:22:35;15.23;;;6.53;;
72439;SDS011;60446;50.752;4.352;2024-01-25T14:25:04;16.80;;;6.73;;
72439;SDS011;60446;50.752;4.352;2024-01-25T14:27:32;15.85;;;6.63;;
72439;SDS011;60446;50.752;4.352;2024-01-25T14:29:59;13.30;;;5.93;;
72439;SDS011;60446;50.752;4.352;2024-01-25T14:32:27;16.67;;;6.40;;
72439;SDS011;60446;50.752;4.352;2024-01-25T14:34:55;17.52;;;6.03;;
72439;SDS011;60446;50.752;4.352;2024-01-25T14:37:22;16.07;;;6.73;;
72439;SDS011;60446;50.752;4.352;2024-01-25T14:39:49;12.93;;;5.78;;
72439;SDS011;60446;50.752;4.352;2024-01-25T14:42:37;15.93;;;6.53;;
72439;SDS011;60446;50.752;4.352;2024-01-25T14:45:05;12.00;;;5.72;;